Time;durP1;ratioP1;P1;durP2;ratioP2;P2;SDS_P1;SDS_P2;PMS_P1;PMS_P2;Temp;Humidity;BMP_temperature;BMP_pressure;BME280_temperature;BME280_humidity;BME280_pressure;Samples;Min_cycle;Max_cycle;Signal;HPM_P1;HPM_P2
2023/09/23 00:01:13;;;;;;;3.03;1.25;;;;;;;;;;5081091;28;20036;-62
2023/09/23 00:03:39;;;;;;;2.50;1.10;;;;;;;;;;5081127;28;20066;-62
2023/09/23 00:06:05;;;;;;;2.85;1.45;;;;;;;;;;5078597;28;20031;-62
2023/09/23 00:08:32;;;;;;;2.97;1.40;;;;;;;;;;5061315;28;20376;-62
2023/09/23 00:10:58;;;;;;;2.13;1.30;;;;;;;;;;5081178;28;20031;-62
2023/09/23 00:13:25;;;;;;;3.92;1.45;;;;;;;;;;5081213;28;20106;-62
2023/09/23 00:15:52;;;;;;;2.65;1.30;;;;;;;;;;5080627;28;20028;-62
2023/09/23 00:18:18;;;;;;;3.80;1.73;;;;;;;;;;5081071;28;20052;-62
2023/09/23 00:20:47;;;;;;;4.43;1.75;;;;;;;;;;5081419;28;20475;-62
2023/09/23 00:23:13;;;;;;;4.32;1.73;;;;;;;;;;5061179;28;20125;-62
2023/09/23 00:25:40;;;;;;;4.57;1.10;;;;;;;;;;5081318;28;20066;-61
2023/09/23 00:28:11;;;;;;;4.65;1.60;;;;;;;;;;5081188;28;20081;-62
2023/09/23 00:30:40;;;;;;;3.50;1.20;;;;;;;;;;5080713;28;20036;-61
2023/09/23 00:33:07;;;;;;;2.65;1.15;;;;;;;;;;5081216;28;20016;-62
2023/09/23 00:35:37;;;;;;;3.55;1.00;;;;;;;;;;5080974;28;20117;-61
2023/09/23 00:38:04;;;;;;;1.90;1.10;;;;;;;;;;5080412;28;20776;-62
2023/09/23 00:40:32;;;;;;;2.63;0.90;;;;;;;;;;5078016;28;20036;-62
2023/09/23 00:43:05;;;;;;;6.38;1.50;;;;;;;;;;5082096;28;21119;-62
2023/09/23 00:45:35;;;;;;;1.90;0.68;;;;;;;;;;5085072;28;20028;-61
2023/09/23 00:48:01;;;;;;;2.50;0.98;;;;;;;;;;5085705;28;20044;-62
2023/09/23 00:50:29;;;;;;;2.78;0.93;;;;;;;;;;5085288;28;21019;-61
2023/09/23 00:52:55;;;;;;;2.30;0.60;;;;;;;;;;5084979;28;20131;-61
2023/09/23 00:55:24;;;;;;;0.75;0.47;;;;;;;;;;5084804;28;20043;-62
2023/09/23 00:57:53;;;;;;;1.65;0.55;;;;;;;;;;5085339;28;20036;-61
2023/09/23 01:00:25;;;;;;;1.25;0.75;;;;;;;;;;5085046;28;20494;-61
2023/09/23 01:02:51;;;;;;;3.15;0.90;;;;;;;;;;5082602;28;20432;-62
2023/09/23 01:05:18;;;;;;;2.72;0.80;;;;;;;;;;5085492;28;20479;-62
2023/09/23 01:07:46;;;;;;;3.00;1.27;;;;;;;;;;5084598;28;20047;-62
2023/09/23 01:10:12;;;;;;;2.40;0.77;;;;;;;;;;5083153;28;20114;-62
2023/09/23 01:12:38;;;;;;;1.60;0.65;;;;;;;;;;5084177;28;20721;-61
2023/09/23 01:15:17;;;;;;;1.15;0.65;;;;;;;;;;5083890;28;20748;-61
2023/09/23 01:17:52;;;;;;;3.13;0.80;;;;;;;;;;5083199;28;20027;-61
2023/09/23 01:20:18;;;;;;;2.53;1.05;;;;;;;;;;5064291;28;20032;-61
2023/09/23 01:22:47;;;;;;;3.38;0.85;;;;;;;;;;5084542;28;20159;-61
2023/09/23 01:25:14;;;;;;;2.22;1.10;;;;;;;;;;5084263;28;20039;-61
2023/09/23 01:27:40;;;;;;;1.52;0.80;;;;;;;;;;5083446;28;20028;-61
2023/09/23 01:30:07;;;;;;;3.72;0.93;;;;;;;;;;5083857;28;20066;-62
2023/09/23 01:32:42;;;;;;;2.38;0.98;;;;;;;;;;5084520;28;20024;-62
2023/09/23 01:35:09;;;;;;;4.20;1.08;;;;;;;;;;5083463;28;20024;-62
2023/09/23 01:37:35;;;;;;;2.97;0.98;;;;;;;;;;5084005;28;20044;-62
2023/09/23 01:40:04;;;;;;;6.88;1.13;;;;;;;;;;5084007;28;20024;-62
2023/09/23 01:42:33;;;;;;;3.65;1.33;;;;;;;;;;5083095;28;20035;-62
2023/09/23 01:44:59;;;;;;;3.75;0.90;;;;;;;;;;5083956;28;20135;-62
2023/09/23 01:47:25;;;;;;;4.90;0.98;;;;;;;;;;5083471;28;20154;-62
2023/09/23 01:49:51;;;;;;;2.38;0.77;;;;;;;;;;5081145;28;20114;-62
2023/09/23 01:52:17;;;;;;;2.75;0.82;;;;;;;;;;5082625;28;20035;-61
2023/09/23 01:54:48;;;;;;;4.15;0.82;;;;;;;;;;5082774;28;20027;-62
2023/09/23 01:57:16;;;;;;;1.60;0.60;;;;;;;;;;5082304;28;20525;-62
2023/09/23 01:59:45;;;;;;;2.28;0.73;;;;;;;;;;5082627;28;20034;-62
2023/09/23 02:02:12;;;;;;;2.80;0.65;;;;;;;;;;5083757;28;20036;-62
2023/09/23 02:04:39;;;;;;;3.92;0.90;;;;;;;;;;5083185;28;20437;-62
2023/09/23 02:07:06;;;;;;;4.57;0.80;;;;;;;;;;5083869;28;20036;-62
2023/09/23 02:09:34;;;;;;;1.98;0.80;;;;;;;;;;5083811;28;20406;-62
2023/09/23 02:12:00;;;;;;;2.50;0.98;;;;;;;;;;5082831;28;20039;-62
2023/09/23 02:14:26;;;;;;;4.03;1.15;;;;;;;;;;5083918;28;20036;-62
2023/09/23 02:16:55;;;;;;;2.85;1.00;;;;;;;;;;5083902;28;20054;-62
2023/09/23 02:19:21;;;;;;;4.57;0.98;;;;;;;;;;5083160;28;20059;-62
2023/09/23 02:21:50;;;;;;;3.00;1.30;;;;;;;;;;5083912;28;20041;-62
2023/09/23 02:24:17;;;;;;;3.40;1.13;;;;;;;;;;5083682;28;20212;-62
2023/09/23 02:26:45;;;;;;;3.67;1.15;;;;;;;;;;5083004;28;20487;-62
2023/09/23 02:29:14;;;;;;;2.97;1.23;;;;;;;;;;5083346;28;20089;-62
2023/09/23 02:31:46;;;;;;;6.57;1.70;;;;;;;;;;5083558;28;20097;-62
2023/09/23 02:34:13;;;;;;;4.30;1.70;;;;;;;;;;5083098;28;20097;-62
2023/09/23 02:36:39;;;;;;;4.07;2.00;;;;;;;;;;5083840;28;20482;-62
2023/09/23 02:39:06;;;;;;;4.35;1.83;;;;;;;;;;5083573;28;20055;-62
2023/09/23 02:41:32;;;;;;;4.63;2.10;;;;;;;;;;5083163;28;20534;-61
2023/09/23 02:44:02;;;;;;;4.55;2.55;;;;;;;;;;5083052;28;20031;-62
2023/09/23 02:46:28;;;;;;;7.50;3.30;;;;;;;;;;5083543;28;20114;-62
2023/09/23 02:48:54;;;;;;;5.15;2.60;;;;;;;;;;5082501;28;20031;-62
2023/09/23 02:51:20;;;;;;;5.93;3.10;;;;;;;;;;5067057;28;20031;-62
2023/09/23 02:53:46;;;;;;;6.38;2.90;;;;;;;;;;5083140;28;20921;-62
2023/09/23 02:56:16;;;;;;;5.45;3.70;;;;;;;;;;5082252;28;20075;-62
2023/09/23 02:58:43;;;;;;;5.57;3.53;;;;;;;;;;5082880;28;20044;-62
2023/09/23 03:01:14;;;;;;;6.22;3.70;;;;;;;;;;5083156;28;21856;-62
2023/09/23 03:03:41;;;;;;;8.20;3.85;;;;;;;;;;5082250;28;20115;-62
2023/09/23 03:06:10;;;;;;;6.72;3.53;;;;;;;;;;5082086;28;20028;-62
2023/09/23 03:08:37;;;;;;;7.00;4.03;;;;;;;;;;5082744;28;20024;-62
2023/09/23 03:11:08;;;;;;;6.40;4.20;;;;;;;;;;5082176;28;21617;-62
2023/09/23 03:13:36;;;;;;;7.97;4.18;;;;;;;;;;5082861;28;20487;-62
2023/09/23 03:16:10;;;;;;;8.45;4.40;;;;;;;;;;5082630;28;20035;-62
2023/09/23 03:18:41;;;;;;;10.90;4.30;;;;;;;;;;5082245;28;20119;-62
2023/09/23 03:21:11;;;;;;;6.57;4.47;;;;;;;;;;5082117;28;20438;-62
2023/09/23 03:23:40;;;;;;;9.70;4.88;;;;;;;;;;5082475;28;20032;-62
2023/09/23 03:26:08;;;;;;;6.88;4.65;;;;;;;;;;5082041;28;20034;-62
2023/09/23 03:28:35;;;;;;;11.25;4.80;;;;;;;;;;5081885;28;20059;-62
2023/09/23 03:31:01;;;;;;;9.02;4.97;;;;;;;;;;5082367;28;20028;-62
2023/09/23 03:33:28;;;;;;;9.38;4.70;;;;;;;;;;5082059;28;20032;-62
2023/09/23 03:35:54;;;;;;;8.85;4.75;;;;;;;;;;5082008;28;20090;-62
2023/09/23 03:38:20;;;;;;;7.35;5.15;;;;;;;;;;5082646;28;20035;-62
2023/09/23 03:40:53;;;;;;;9.75;5.43;;;;;;;;;;5081675;28;20378;-62
2023/09/23 03:43:20;;;;;;;11.07;4.65;;;;;;;;;;5081967;28;20131;-62
2023/09/23 03:45:47;;;;;;;10.05;4.80;;;;;;;;;;5082059;28;20032;-62
2023/09/23 03:48:13;;;;;;;7.30;4.70;;;;;;;;;;5081842;28;20106;-62
2023/09/23 03:50:39;;;;;;;8.02;5.28;;;;;;;;;;5081555;28;20044;-61
2023/09/23 03:53:05;;;;;;;9.85;4.82;;;;;;;;;;5081633;28;20059;-62
2023/09/23 03:55:31;;;;;;;8.20;5.20;;;;;;;;;;5080971;28;20035;-62
2023/09/23 03:57:58;;;;;;;8.60;5.07;;;;;;;;;;5081664;28;20028;-62
2023/09/23 04:00:27;;;;;;;8.13;5.25;;;;;;;;;;5081945;28;20036;-62
2023/09/23 04:02:54;;;;;;;8.98;4.88;;;;;;;;;;5081191;28;20040;-62
2023/09/23 04:05:20;;;;;;;8.95;5.18;;;;;;;;;;5081621;28;20089;-62
2023/09/23 04:07:50;;;;;;;9.10;5.03;;;;;;;;;;5081772;28;20028;-62
2023/09/23 04:10:18;;;;;;;10.10;5.32;;;;;;;;;;5081372;28;20028;-62
2023/09/23 04:12:44;;;;;;;10.10;5.50;;;;;;;;;;5080922;28;20027;-62
2023/09/23 04:15:11;;;;;;;7.88;5.32;;;;;;;;;;5080539;28;20036;-62
2023/09/23 04:17:40;;;;;;;9.55;5.38;;;;;;;;;;5079416;28;20037;-61
2023/09/23 04:20:10;;;;;;;7.75;5.07;;;;;;;;;;5080474;28;20031;-62
2023/09/23 04:22:36;;;;;;;8.52;5.22;;;;;;;;;;5080871;28;20073;-62
2023/09/23 04:25:06;;;;;;;6.65;5.10;;;;;;;;;;5080644;28;20080;-62
2023/09/23 04:27:33;;;;;;;7.90;5.13;;;;;;;;;;5081270;28;20052;-62
2023/09/23 04:30:00;;;;;;;12.23;5.60;;;;;;;;;;5081181;28;20097;-62
2023/09/23 04:32:26;;;;;;;8.02;5.38;;;;;;;;;;5081158;28;20028;-61
2023/09/23 04:34:53;;;;;;;9.32;5.90;;;;;;;;;;5071257;28;20502;-62
2023/09/23 04:37:19;;;;;;;8.73;5.28;;;;;;;;;;5081724;28;20036;-62
2023/09/23 04:39:45;;;;;;;10.13;5.72;;;;;;;;;;5081038;28;20754;-62
2023/09/23 04:42:11;;;;;;;7.22;5.28;;;;;;;;;;5080922;28;20086;-62
2023/09/23 04:44:37;;;;;;;8.05;4.88;;;;;;;;;;5081817;28;20078;-62
2023/09/23 04:47:03;;;;;;;6.82;4.50;;;;;;;;;;5080978;28;20148;-62
2023/09/23 04:49:29;;;;;;;7.32;4.55;;;;;;;;;;5081183;28;20992;-62
2023/09/23 04:51:56;;;;;;;9.50;5.30;;;;;;;;;;5081317;28;20040;-61
2023/09/23 04:54:22;;;;;;;8.25;5.10;;;;;;;;;;5080969;28;20027;-62
2023/09/23 04:56:48;;;;;;;6.75;4.68;;;;;;;;;;5080812;28;20076;-62
2023/09/23 04:59:14;;;;;;;8.13;5.15;;;;;;;;;;5080960;28;20038;-62
2023/09/23 05:01:40;;;;;;;7.53;4.57;;;;;;;;;;5080516;28;20517;-61
2023/09/23 05:04:07;;;;;;;7.15;5.05;;;;;;;;;;5081072;28;20086;-62
2023/09/23 05:06:36;;;;;;;6.93;4.90;;;;;;;;;;5081110;28;21063;-62
2023/09/23 05:09:02;;;;;;;8.07;4.50;;;;;;;;;;5080332;28;20589;-62
2023/09/23 05:11:28;;;;;;;8.90;5.57;;;;;;;;;;5080434;28;20032;-62
2023/09/23 05:13:54;;;;;;;6.00;4.32;;;;;;;;;;5081394;28;20110;-62
2023/09/23 05:16:22;;;;;;;7.00;4.65;;;;;;;;;;5080002;28;20074;-62
2023/09/23 05:18:49;;;;;;;9.20;4.75;;;;;;;;;;5080624;28;20031;-62
2023/09/23 05:21:18;;;;;;;8.23;4.47;;;;;;;;;;5080556;28;20023;-62
2023/09/23 05:23:48;;;;;;;6.68;4.45;;;;;;;;;;5080064;28;20016;-62
2023/09/23 05:26:16;;;;;;;7.32;4.45;;;;;;;;;;5080796;28;20160;-62
2023/09/23 05:28:42;;;;;;;6.57;4.30;;;;;;;;;;5080149;28;20475;-62
2023/09/23 05:31:08;;;;;;;8.63;4.88;;;;;;;;;;5083709;28;20028;-62
2023/09/23 05:33:34;;;;;;;10.93;5.03;;;;;;;;;;5083779;28;20034;-62
2023/09/23 05:36:00;;;;;;;6.95;4.68;;;;;;;;;;5084097;28;20057;-62
2023/09/23 05:38:26;;;;;;;6.95;4.70;;;;;;;;;;5083526;28;20036;-62
2023/09/23 05:40:52;;;;;;;8.57;5.32;;;;;;;;;;5064836;28;20115;-61
2023/09/23 05:43:19;;;;;;;7.20;4.90;;;;;;;;;;5084124;28;20119;-61
2023/09/23 05:45:45;;;;;;;7.15;5.00;;;;;;;;;;5083664;28;20191;-62
2023/09/23 05:48:11;;;;;;;7.38;4.90;;;;;;;;;;5083839;28;20643;-62
2023/09/23 05:50:37;;;;;;;6.95;4.38;;;;;;;;;;5083988;28;20105;-62
2023/09/23 05:53:03;;;;;;;7.10;4.78;;;;;;;;;;5083526;28;20065;-62
2023/09/23 05:55:31;;;;;;;7.68;5.40;;;;;;;;;;5083743;28;20061;-62
2023/09/23 05:57:57;;;;;;;8.75;6.15;;;;;;;;;;5084031;28;20398;-61
2023/09/23 06:00:23;;;;;;;7.10;5.72;;;;;;;;;;5083688;28;20118;-62
2023/09/23 06:02:49;;;;;;;8.55;6.25;;;;;;;;;;5083559;28;20085;-61
2023/09/23 06:05:16;;;;;;;7.03;5.18;;;;;;;;;;5084005;28;20090;-62
2023/09/23 06:07:42;;;;;;;7.28;5.10;;;;;;;;;;5083415;28;20023;-62
2023/09/23 06:10:10;;;;;;;8.10;6.13;;;;;;;;;;5083621;27;20042;-62
2023/09/23 06:12:36;;;;;;;7.68;5.47;;;;;;;;;;5083739;28;20034;-61
2023/09/23 06:15:04;;;;;;;8.15;6.30;;;;;;;;;;5082728;28;20069;-61
2023/09/23 06:17:32;;;;;;;9.50;6.53;;;;;;;;;;5083454;28;20938;-61
2023/09/23 06:19:58;;;;;;;10.60;7.10;;;;;;;;;;5083576;28;20032;-62
2023/09/23 06:22:25;;;;;;;9.68;7.22;;;;;;;;;;5083159;28;20054;-61
2023/09/23 06:24:51;;;;;;;11.45;7.35;;;;;;;;;;5083094;28;20441;-62
2023/09/23 06:27:17;;;;;;;15.13;7.88;;;;;;;;;;5083937;28;20027;-62
2023/09/23 06:29:47;;;;;;;10.10;7.00;;;;;;;;;;5082767;28;20124;-61
2023/09/23 06:32:13;;;;;;;12.15;8.23;;;;;;;;;;5083137;28;21048;-61
2023/09/23 06:34:39;;;;;;;12.25;8.45;;;;;;;;;;5083497;28;20876;-61
2023/09/23 06:37:06;;;;;;;11.07;8.43;;;;;;;;;;5081641;28;20031;-61
2023/09/23 06:39:32;;;;;;;10.23;8.63;;;;;;;;;;5082116;28;20036;-61
2023/09/23 06:41:58;;;;;;;13.00;9.07;;;;;;;;;;5081283;28;20040;-61
2023/09/23 06:44:24;;;;;;;12.88;9.27;;;;;;;;;;5082303;28;20031;-61
2023/09/23 06:46:51;;;;;;;13.30;9.40;;;;;;;;;;5082256;28;20040;-61
2023/09/23 06:49:17;;;;;;;12.55;9.40;;;;;;;;;;5082818;28;20036;-61
2023/09/23 06:51:43;;;;;;;13.32;10.40;;;;;;;;;;5082454;28;20028;-62
2023/09/23 06:54:09;;;;;;;11.15;9.32;;;;;;;;;;5083020;28;20051;-62
2023/09/23 06:56:36;;;;;;;13.40;9.52;;;;;;;;;;5083100;28;20105;-62
2023/09/23 06:59:02;;;;;;;12.32;9.88;;;;;;;;;;5082321;28;20098;-62
2023/09/23 07:01:28;;;;;;;15.63;10.63;;;;;;;;;;5082773;28;20096;-62
2023/09/23 07:03:54;;;;;;;14.98;11.27;;;;;;;;;;5082599;28;20054;-62
2023/09/23 07:06:20;;;;;;;14.52;10.43;;;;;;;;;;5081375;28;21854;-62
2023/09/23 07:08:47;;;;;;;16.92;10.52;;;;;;;;;;5082107;28;20035;-62
2023/09/23 07:11:13;;;;;;;12.55;10.55;;;;;;;;;;5082136;28;20850;-62
2023/09/23 07:13:39;;;;;;;15.00;10.23;;;;;;;;;;5082526;28;20462;-62
2023/09/23 07:16:05;;;;;;;14.95;10.07;;;;;;;;;;5082422;28;20053;-62
2023/09/23 07:18:32;;;;;;;13.50;10.13;;;;;;;;;;5082686;28;20036;-62
2023/09/23 07:20:58;;;;;;;14.65;9.80;;;;;;;;;;5082476;28;20096;-62
2023/09/23 07:23:25;;;;;;;15.60;10.88;;;;;;;;;;5082903;28;20034;-62
2023/09/23 07:25:52;;;;;;;14.43;10.18;;;;;;;;;;5082498;28;20059;-62
2023/09/23 07:28:18;;;;;;;15.02;10.20;;;;;;;;;;5082207;28;20028;-62
2023/09/23 07:30:47;;;;;;;16.02;10.00;;;;;;;;;;5082141;28;20725;-62
2023/09/23 07:33:13;;;;;;;17.90;10.95;;;;;;;;;;5082398;28;20097;-62
2023/09/23 07:35:39;;;;;;;14.95;10.82;;;;;;;;;;5081447;28;20580;-62
2023/09/23 07:38:05;;;;;;;16.02;10.85;;;;;;;;;;5082218;28;20153;-62
2023/09/23 07:40:31;;;;;;;12.73;10.10;;;;;;;;;;5082167;28;20085;-62
2023/09/23 07:42:57;;;;;;;14.00;10.63;;;;;;;;;;5072202;28;21678;-62
2023/09/23 07:45:24;;;;;;;14.30;10.13;;;;;;;;;;5082005;28;20039;-62
2023/09/23 07:47:50;;;;;;;15.43;10.63;;;;;;;;;;5065763;28;20028;-62
2023/09/23 07:50:16;;;;;;;14.38;10.35;;;;;;;;;;5081237;28;20046;-62
2023/09/23 07:52:42;;;;;;;17.38;10.48;;;;;;;;;;5081054;28;20951;-62
2023/09/23 07:55:10;;;;;;;14.38;10.13;;;;;;;;;;5081671;28;20028;-62
2023/09/23 07:57:36;;;;;;;14.98;10.57;;;;;;;;;;5081171;28;20044;-62
2023/09/23 08:00:03;;;;;;;15.25;10.85;;;;;;;;;;5081652;28;20053;-63
2023/09/23 08:02:29;;;;;;;15.45;10.75;;;;;;;;;;5080292;28;20465;-62
2023/09/23 08:04:55;;;;;;;14.95;9.85;;;;;;;;;;5080867;28;20142;-63
2023/09/23 08:07:21;;;;;;;14.07;10.13;;;;;;;;;;5081096;28;20040;-63
2023/09/23 08:09:47;;;;;;;14.95;9.30;;;;;;;;;;5080869;28;20058;-62
2023/09/23 08:12:13;;;;;;;11.80;7.82;;;;;;;;;;5080907;28;20047;-62
2023/09/23 08:14:39;;;;;;;14.38;9.60;;;;;;;;;;5081205;28;20993;-62
2023/09/23 08:17:05;;;;;;;13.48;8.73;;;;;;;;;;5081140;28;20043;-62
2023/09/23 08:19:31;;;;;;;15.35;9.85;;;;;;;;;;5080829;28;20054;-62
2023/09/23 08:21:57;;;;;;;15.13;8.85;;;;;;;;;;5081010;28;20043;-63
2023/09/23 08:24:23;;;;;;;14.18;8.57;;;;;;;;;;5080595;28;20032;-63
2023/09/23 08:26:50;;;;;;;15.63;9.70;;;;;;;;;;5081280;28;20047;-62
2023/09/23 08:29:16;;;;;;;15.25;8.75;;;;;;;;;;5080838;28;20348;-63
2023/09/23 08:31:42;;;;;;;13.73;8.63;;;;;;;;;;5081021;28;20103;-63
2023/09/23 08:34:11;;;;;;;15.35;9.05;;;;;;;;;;5081148;28;20931;-63
2023/09/23 08:36:37;;;;;;;12.68;9.07;;;;;;;;;;5081232;28;20122;-63
2023/09/23 08:39:07;;;;;;;13.27;9.07;;;;;;;;;;5080533;28;20028;-62
2023/09/23 08:41:34;;;;;;;12.38;8.15;;;;;;;;;;5080564;28;20043;-63
2023/09/23 08:44:03;;;;;;;14.77;8.10;;;;;;;;;;5070613;28;20036;-62
2023/09/23 08:46:31;;;;;;;10.95;7.90;;;;;;;;;;5080488;28;20025;-63
2023/09/23 08:48:58;;;;;;;12.13;8.13;;;;;;;;;;5080397;28;20031;-63
2023/09/23 08:51:25;;;;;;;10.05;7.45;;;;;;;;;;5080908;28;20093;-63
2023/09/23 08:53:52;;;;;;;10.52;6.90;;;;;;;;;;5080206;28;20028;-62
2023/09/23 08:56:19;;;;;;;9.90;6.78;;;;;;;;;;5080928;28;20075;-63
2023/09/23 08:58:45;;;;;;;9.73;6.40;;;;;;;;;;5080742;28;20024;-62
2023/09/23 09:01:11;;;;;;;10.02;6.55;;;;;;;;;;5079412;28;21807;-63
2023/09/23 09:03:37;;;;;;;10.48;5.72;;;;;;;;;;5080198;28;20031;-63
2023/09/23 09:06:04;;;;;;;9.35;5.80;;;;;;;;;;5084186;28;20047;-63
2023/09/23 09:08:33;;;;;;;8.18;4.78;;;;;;;;;;5084368;28;20024;-63
2023/09/23 09:11:01;;;;;;;8.32;4.68;;;;;;;;;;5084376;28;20040;-63
2023/09/23 09:13:30;;;;;;;9.65;5.20;;;;;;;;;;5085088;28;20023;-63
2023/09/23 09:15:57;;;;;;;13.77;6.57;;;;;;;;;;5082683;28;20088;-63
2023/09/23 09:18:23;;;;;;;10.25;6.32;;;;;;;;;;5083377;28;20028;-63
2023/09/23 09:20:49;;;;;;;9.32;5.50;;;;;;;;;;5082808;28;20039;-63
2023/09/23 09:23:16;;;;;;;8.73;6.07;;;;;;;;;;5083517;28;20040;-63
2023/09/23 09:25:47;;;;;;;8.90;5.63;;;;;;;;;;5083620;28;20028;-63
2023/09/23 09:28:13;;;;;;;7.80;5.43;;;;;;;;;;5083886;28;20047;-63
2023/09/23 09:30:39;;;;;;;8.10;4.78;;;;;;;;;;5083908;28;20040;-63
2023/09/23 09:33:08;;;;;;;9.48;5.90;;;;;;;;;;5084257;28;20506;-63
2023/09/23 09:35:34;;;;;;;8.70;4.43;;;;;;;;;;5083986;28;20474;-63
2023/09/23 09:38:01;;;;;;;7.47;4.00;;;;;;;;;;5083843;28;20016;-63
2023/09/23 09:40:28;;;;;;;8.77;4.18;;;;;;;;;;5083764;28;20043;-63
2023/09/23 09:42:55;;;;;;;8.48;3.78;;;;;;;;;;5082911;28;20054;-63
2023/09/23 09:45:22;;;;;;;6.63;3.40;;;;;;;;;;5083175;28;20119;-62
2023/09/23 09:47:48;;;;;;;9.05;3.10;;;;;;;;;;5083886;28;20046;-63
2023/09/23 09:50:15;;;;;;;8.27;2.83;;;;;;;;;;5083694;28;20035;-63
2023/09/23 09:52:45;;;;;;;8.85;2.70;;;;;;;;;;5083366;28;20028;-63
2023/09/23 09:55:18;;;;;;;5.15;2.08;;;;;;;;;;5083397;28;20043;-63
2023/09/23 09:57:45;;;;;;;5.85;2.42;;;;;;;;;;5083417;28;20032;-63
2023/09/23 10:00:22;;;;;;;6.53;2.60;;;;;;;;;;5083346;28;20131;-63
2023/09/23 10:02:48;;;;;;;8.55;2.58;;;;;;;;;;5083668;28;20028;-63
2023/09/23 10:05:18;;;;;;;7.25;2.35;;;;;;;;;;5062981;28;20630;-62
2023/09/23 10:07:56;;;;;;;5.43;2.03;;;;;;;;;;5083308;28;20055;-63
2023/09/23 10:10:35;;;;;;;4.53;1.80;;;;;;;;;;5083678;28;20048;-63
2023/09/23 10:13:08;;;;;;;5.63;1.73;;;;;;;;;;5082818;28;20024;-62
2023/09/23 10:15:38;;;;;;;5.30;1.70;;;;;;;;;;5081760;28;20081;-63
2023/09/23 10:18:08;;;;;;;4.22;1.85;;;;;;;;;;5082990;28;20028;-63
2023/09/23 10:20:34;;;;;;;4.70;1.70;;;;;;;;;;5082072;28;20030;-62
2023/09/23 10:23:02;;;;;;;4.05;1.90;;;;;;;;;;5083065;28;21799;-63
2023/09/23 10:25:38;;;;;;;6.43;1.77;;;;;;;;;;5083369;28;20930;-63
2023/09/23 10:28:07;;;;;;;5.35;2.53;;;;;;;;;;5082943;28;20027;-63
2023/09/23 10:30:35;;;;;;;5.95;2.53;;;;;;;;;;5083151;28;20556;-63
2023/09/23 10:33:02;;;;;;;5.30;3.10;;;;;;;;;;5083249;28;20035;-63
2023/09/23 10:35:28;;;;;;;6.18;2.72;;;;;;;;;;5082685;28;20066;-63
2023/09/23 10:37:55;;;;;;;5.80;2.35;;;;;;;;;;5082656;28;20031;-63
2023/09/23 10:40:21;;;;;;;5.18;2.67;;;;;;;;;;5083355;28;20469;-63
2023/09/23 10:42:47;;;;;;;6.13;2.88;;;;;;;;;;5081817;28;20056;-63
2023/09/23 10:45:14;;;;;;;9.93;3.42;;;;;;;;;;5082875;28;20085;-63
2023/09/23 10:47:40;;;;;;;6.13;3.10;;;;;;;;;;5082625;28;20039;-63
2023/09/23 10:50:10;;;;;;;6.28;3.10;;;;;;;;;;5082473;28;20111;-62
2023/09/23 10:52:37;;;;;;;6.03;3.33;;;;;;;;;;5082652;28;20036;-63
2023/09/23 10:55:04;;;;;;;14.98;4.47;;;;;;;;;;5082906;28;20069;-63
2023/09/23 10:57:30;;;;;;;10.15;4.55;;;;;;;;;;5082354;28;20654;-63
2023/09/23 10:59:57;;;;;;;8.63;3.85;;;;;;;;;;5082710;28;20039;-63
2023/09/23 11:02:24;;;;;;;7.57;3.80;;;;;;;;;;5082773;28;20449;-62
2023/09/23 11:04:51;;;;;;;9.00;4.72;;;;;;;;;;5081801;28;20120;-62
2023/09/23 11:07:17;;;;;;;9.43;3.80;;;;;;;;;;5082495;28;20042;-62
2023/09/23 11:09:46;;;;;;;6.68;3.42;;;;;;;;;;5081865;28;20254;-62
2023/09/23 11:12:13;;;;;;;9.48;3.47;;;;;;;;;;5081659;28;20024;-63
2023/09/23 11:14:48;;;;;;;9.82;3.35;;;;;;;;;;5082182;28;20864;-62
2023/09/23 11:17:23;;;;;;;12.60;3.55;;;;;;;;;;5081927;28;20443;-63
2023/09/23 11:19:53;;;;;;;8.25;2.95;;;;;;;;;;5081769;28;20039;-63
2023/09/23 11:22:26;;;;;;;6.10;2.30;;;;;;;;;;5082222;28;20039;-63
2023/09/23 11:24:52;;;;;;;11.43;2.97;;;;;;;;;;5081500;28;20039;-62
2023/09/23 11:27:18;;;;;;;7.85;2.88;;;;;;;;;;5081594;28;20031;-63
2023/09/23 11:29:44;;;;;;;10.45;3.08;;;;;;;;;;5082244;28;20043;-66
2023/09/23 11:32:11;;;;;;;6.65;2.90;;;;;;;;;;5080986;28;20035;-67
2023/09/23 11:34:37;;;;;;;8.55;3.55;;;;;;;;;;5080901;28;20028;-66
2023/09/23 11:37:04;;;;;;;6.50;3.13;;;;;;;;;;5080313;28;20028;-66
2023/09/23 11:39:37;;;;;;;7.75;2.80;;;;;;;;;;5079320;28;20028;-67
2023/09/23 11:42:04;;;;;;;8.25;2.53;;;;;;;;;;5079482;28;20185;-67
2023/09/23 11:44:30;;;;;;;9.13;2.30;;;;;;;;;;5059564;28;20517;-66
2023/09/23 11:46:56;;;;;;;3.92;1.50;;;;;;;;;;5079656;28;20680;-67
2023/09/23 11:49:23;;;;;;;3.03;1.17;;;;;;;;;;5079190;28;21047;-66
2023/09/23 11:51:50;;;;;;;2.20;1.05;;;;;;;;;;5061110;28;20040;-67
2023/09/23 11:54:16;;;;;;;4.88;1.38;;;;;;;;;;5079754;28;20018;-66
2023/09/23 11:56:43;;;;;;;2.35;1.15;;;;;;;;;;5080672;28;20044;-66
2023/09/23 11:59:14;;;;;;;3.90;1.40;;;;;;;;;;5080433;27;20035;-62
2023/09/23 12:01:43;;;;;;;3.08;1.15;;;;;;;;;;5062584;28;20617;-62
2023/09/23 12:04:10;;;;;;;2.78;1.10;;;;;;;;;;5061184;28;20072;-63
2023/09/23 12:06:36;;;;;;;2.97;0.90;;;;;;;;;;5079323;28;20030;-63
2023/09/23 12:09:03;;;;;;;3.15;1.02;;;;;;;;;;5077881;28;20138;-63
2023/09/23 12:11:30;;;;;;;3.53;1.00;;;;;;;;;;5059540;28;20030;-63
2023/09/23 12:13:56;;;;;;;3.92;1.10;;;;;;;;;;5080009;28;20021;-62
2023/09/23 12:16:23;;;;;;;2.70;0.98;;;;;;;;;;5060622;28;20550;-62
2023/09/23 12:18:50;;;;;;;3.40;0.70;;;;;;;;;;5059339;28;20064;-63
2023/09/23 12:21:16;;;;;;;2.85;0.88;;;;;;;;;;5060359;28;20085;-63
2023/09/23 12:23:42;;;;;;;3.53;0.90;;;;;;;;;;5078974;28;20031;-62
2023/09/23 12:26:12;;;;;;;2.22;0.43;;;;;;;;;;5078934;28;20040;-63
2023/09/23 12:28:41;;;;;;;5.05;0.73;;;;;;;;;;5069437;28;20043;-63
2023/09/23 12:31:07;;;;;;;1.25;0.45;;;;;;;;;;5080008;28;20060;-63
2023/09/23 12:33:34;;;;;;;1.17;0.55;;;;;;;;;;5079351;28;20039;-63
2023/09/23 12:36:00;;;;;;;0.93;0.52;;;;;;;;;;5059892;28;20043;-63
2023/09/23 12:38:27;;;;;;;2.22;0.70;;;;;;;;;;5080107;28;20036;-63
2023/09/23 12:40:53;;;;;;;2.40;0.95;;;;;;;;;;5083967;28;20028;-63
2023/09/23 12:43:19;;;;;;;1.00;0.55;;;;;;;;;;5084837;28;20032;-63
2023/09/23 12:45:45;;;;;;;7.63;1.10;;;;;;;;;;5084332;28;20123;-67
2023/09/23 12:48:11;;;;;;;3.25;1.00;;;;;;;;;;5084168;28;20039;-66
2023/09/23 12:50:37;;;;;;;5.43;1.30;;;;;;;;;;5084546;28;20031;-67
2023/09/23 12:53:04;;;;;;;2.53;1.15;;;;;;;;;;5083871;28;20483;-66
2023/09/23 12:55:30;;;;;;;2.97;1.27;;;;;;;;;;5084476;28;20063;-66
2023/09/23 12:57:56;;;;;;;3.95;0.95;;;;;;;;;;5084416;28;20124;-67
2023/09/23 13:00:23;;;;;;;4.13;1.00;;;;;;;;;;5084690;28;20112;-66
2023/09/23 13:02:50;;;;;;;4.50;1.10;;;;;;;;;;5084420;28;20036;-66
2023/09/23 13:05:16;;;;;;;5.60;1.25;;;;;;;;;;5085087;28;20036;-66
2023/09/23 13:07:42;;;;;;;3.15;1.13;;;;;;;;;;5084056;28;20028;-66
2023/09/23 13:10:12;;;;;;;4.63;1.48;;;;;;;;;;5083968;28;21959;-67
2023/09/23 13:12:38;;;;;;;4.60;1.10;;;;;;;;;;5063337;28;20036;-67
2023/09/23 13:15:05;;;;;;;3.30;1.17;;;;;;;;;;5083519;28;20032;-66
2023/09/23 13:17:31;;;;;;;8.48;1.65;;;;;;;;;;5083516;28;20082;-66
2023/09/23 13:19:57;;;;;;;6.45;1.90;;;;;;;;;;5084471;28;20111;-66
2023/09/23 13:22:24;;;;;;;1.95;0.90;;;;;;;;;;5083846;28;20752;-67
2023/09/23 13:24:51;;;;;;;3.80;1.40;;;;;;;;;;5084335;28;20107;-66
2023/09/23 13:27:17;;;;;;;3.58;1.13;;;;;;;;;;5084657;28;20024;-67
2023/09/23 13:29:44;;;;;;;3.88;1.45;;;;;;;;;;5084363;28;20036;-66
2023/09/23 13:32:10;;;;;;;3.08;0.90;;;;;;;;;;5084052;28;20032;-66
2023/09/23 13:34:36;;;;;;;5.10;1.42;;;;;;;;;;5083467;28;20039;-66
2023/09/23 13:37:02;;;;;;;6.00;1.13;;;;;;;;;;5084130;28;20085;-67
2023/09/23 13:39:28;;;;;;;5.80;0.95;;;;;;;;;;5084575;28;20032;-67
2023/09/23 13:41:55;;;;;;;4.95;1.48;;;;;;;;;;5083641;28;20081;-66
2023/09/23 13:44:24;;;;;;;2.38;0.75;;;;;;;;;;5084278;28;20048;-66
2023/09/23 13:46:50;;;;;;;2.70;0.90;;;;;;;;;;5083650;28;20020;-66
2023/09/23 13:49:16;;;;;;;4.32;1.10;;;;;;;;;;5083280;28;20138;-66
2023/09/23 13:51:42;;;;;;;3.70;0.93;;;;;;;;;;5083226;28;20145;-67
2023/09/23 13:54:09;;;;;;;1.92;0.70;;;;;;;;;;5083304;28;21024;-66
2023/09/23 13:56:35;;;;;;;1.35;0.70;;;;;;;;;;5082195;28;20048;-66
2023/09/23 13:59:01;;;;;;;6.18;1.13;;;;;;;;;;5082642;28;20796;-67
2023/09/23 14:01:29;;;;;;;3.70;1.00;;;;;;;;;;5082976;28;20035;-67
2023/09/23 14:03:55;;;;;;;6.20;0.90;;;;;;;;;;5080356;28;20371;-66
2023/09/23 14:06:21;;;;;;;3.22;1.02;;;;;;;;;;5061197;28;20033;-67
2023/09/23 14:08:47;;;;;;;5.15;0.90;;;;;;;;;;5082239;28;21810;-66
2023/09/23 14:11:13;;;;;;;1.10;0.60;;;;;;;;;;5083165;28;20094;-66
2023/09/23 14:13:40;;;;;;;4.63;0.80;;;;;;;;;;5082611;28;20024;-66
2023/09/23 14:16:07;;;;;;;3.53;0.50;;;;;;;;;;5084149;27;20126;-66
2023/09/23 14:18:34;;;;;;;2.90;0.50;;;;;;;;;;5083056;28;20028;-67
2023/09/23 14:21:00;;;;;;;5.93;0.77;;;;;;;;;;5082712;28;21000;-66
2023/09/23 14:23:26;;;;;;;1.75;0.60;;;;;;;;;;5082739;28;20105;-66
2023/09/23 14:25:53;;;;;;;2.78;0.60;;;;;;;;;;5083381;28;20028;-66
2023/09/23 14:28:19;;;;;;;3.28;0.70;;;;;;;;;;5083704;28;20142;-66
2023/09/23 14:30:45;;;;;;;2.92;0.73;;;;;;;;;;5082823;28;20127;-66
2023/09/23 14:33:11;;;;;;;1.83;0.38;;;;;;;;;;5082303;28;20036;-66
2023/09/23 14:35:37;;;;;;;1.90;0.82;;;;;;;;;;5083504;28;20016;-66
2023/09/23 14:38:03;;;;;;;1.90;0.70;;;;;;;;;;5082819;28;20024;-66